Time;durP1;ratioP1;P1;durP2;ratioP2;P2;SDS_P1;SDS_P2;PMS_P1;PMS_P2;Temp;Humidity;BMP_temperature;BMP_pressure;BME280_temperature;BME280_humidity;BME280_pressure;Samples;Min_cycle;Max_cycle;Signal;HPM_P1;HPM_P2
2021/06/05 00:02:22;;;;;;;9.32;7.63;;;;;;;13.43;92.42;95915.56;4823236;29;20047;-79
2021/06/05 00:04:49;;;;;;;10.52;9.20;;;;;;;13.43;93.84;95920.06;4844452;29;20046;-80
2021/06/05 00:07:15;;;;;;;12.65;8.82;;;;;;;13.44;93.49;95922.44;4830437;29;20054;-79
2021/06/05 00:09:42;;;;;;;10.60;8.45;;;;;;;13.45;92.88;95928.53;4823486;29;20501;-79
2021/06/05 00:12:12;;;;;;;9.63;8.63;;;;;;;13.38;93.40;95915.59;4836691;29;20051;-80
2021/06/05 00:14:37;;;;;;;11.98;9.15;;;;;;;13.32;93.65;95914.81;4823048;29;20034;-76
2021/06/05 00:17:03;;;;;;;11.20;9.07;;;;;;;13.36;93.40;95914.31;4814877;29;20172;-76
2021/06/05 00:19:29;;;;;;;10.98;8.63;;;;;;;13.36;93.36;95922.22;4805728;29;20112;-76
2021/06/05 00:21:54;;;;;;;9.27;7.70;;;;;;;13.39;93.00;95919.03;4823243;29;20054;-75
2021/06/05 00:24:20;;;;;;;10.48;7.13;;;;;;;13.37;93.42;95926.47;4822812;29;20065;-76
2021/06/05 00:26:47;;;;;;;10.63;7.75;;;;;;;13.38;92.91;95928.06;4822359;29;20066;-76
2021/06/05 00:29:12;;;;;;;9.23;8.10;;;;;;;13.33;92.99;95931.47;4822091;29;20055;-76
2021/06/05 00:31:39;;;;;;;8.93;7.30;;;;;;;13.34;92.98;95918.00;4822031;29;20478;-76
2021/06/05 00:34:05;;;;;;;9.02;8.05;;;;;;;13.37;92.69;95921.19;4822677;29;20111;-76
2021/06/05 00:36:31;;;;;;;9.88;7.63;;;;;;;13.35;92.67;95929.38;4816610;29;20045;-76
2021/06/05 00:38:57;;;;;;;10.13;7.80;;;;;;;13.29;92.92;95928.59;4804797;29;20047;-76
2021/06/05 00:41:26;;;;;;;9.35;8.35;;;;;;;13.28;93.49;95929.66;4816434;29;20047;-76
2021/06/05 00:43:55;;;;;;;10.32;8.02;;;;;;;13.30;93.55;95916.97;4831669;29;20046;-76
2021/06/05 00:46:23;;;;;;;11.40;8.48;;;;;;;13.32;93.17;95912.19;4820130;29;20099;-76
2021/06/05 00:48:49;;;;;;;9.43;7.78;;;;;;;13.30;92.95;95916.97;4820751;29;20501;-75
2021/06/05 00:51:17;;;;;;;8.68;7.45;;;;;;;13.31;92.53;95934.38;4822550;29;89760;-76
2021/06/05 00:53:43;;;;;;;8.23;7.25;;;;;;;13.36;92.38;95925.69;4830133;29;20046;-76
2021/06/05 00:56:12;;;;;;;8.07;7.18;;;;;;;13.31;92.01;95923.81;4821576;29;20103;-76
2021/06/05 00:58:38;;;;;;;8.50;7.18;;;;;;;13.30;92.57;95922.25;4822736;29;20172;-76
2021/06/05 01:01:09;;;;;;;9.70;6.70;;;;;;;13.29;91.90;95931.25;4822129;29;20053;-76
2021/06/05 01:03:36;;;;;;;8.90;7.25;;;;;;;13.25;92.12;95927.56;4823125;29;20062;-76
2021/06/05 01:06:08;;;;;;;8.52;7.65;;;;;;;13.22;92.61;95928.13;4823569;29;20073;-77
2021/06/05 01:08:47;;;;;;;8.48;6.90;;;;;;;13.17;92.11;95922.88;4822390;29;20039;-76
2021/06/05 01:11:24;;;;;;;8.40;7.20;;;;;;;13.17;92.12;95922.88;4823649;29;20043;-76
2021/06/05 01:14:05;;;;;;;7.68;6.70;;;;;;;13.16;91.90;95929.22;4823076;29;20046;-76
2021/06/05 01:16:32;;;;;;;8.90;7.18;;;;;;;13.13;91.86;95927.13;4836627;29;20557;-76
2021/06/05 01:19:08;;;;;;;8.88;6.57;;;;;;;13.14;92.39;95923.41;4836405;29;20421;-76
2021/06/05 01:21:43;;;;;;;7.70;6.25;;;;;;;13.14;91.86;95920.78;4822946;29;20043;-77
2021/06/05 01:24:23;;;;;;;10.77;6.68;;;;;;;13.14;92.56;95928.72;4836819;29;20047;-76
2021/06/05 01:26:59;;;;;;;7.22;6.22;;;;;;;13.12;91.55;95925.56;4823007;29;20050;-76
2021/06/05 01:29:37;;;;;;;6.90;6.10;;;;;;;13.16;91.85;95926.59;4821863;29;20526;-76
2021/06/05 01:32:10;;;;;;;8.98;6.57;;;;;;;13.16;92.51;95926.59;4823153;29;20390;-76
2021/06/05 01:34:40;;;;;;;8.18;6.95;;;;;;;13.18;92.61;95932.38;4836772;29;20054;-75
2021/06/05 01:37:08;;;;;;;7.93;6.25;;;;;;;13.21;91.98;95934.47;4822255;29;20050;-76
2021/06/05 01:39:37;;;;;;;7.47;6.57;;;;;;;13.26;92.16;95941.56;4822782;29;20068;-76
2021/06/05 01:42:07;;;;;;;6.72;6.00;;;;;;;13.26;91.95;95942.38;4822971;29;20046;-76
2021/06/05 01:44:34;;;;;;;7.78;6.70;;;;;;;13.24;92.54;95941.84;4822703;29;20394;-76
2021/06/05 01:47:00;;;;;;;8.77;6.07;;;;;;;13.25;92.21;95945.28;4822090;29;20103;-76
2021/06/05 01:49:26;;;;;;;8.77;5.93;;;;;;;13.26;91.63;95947.66;4822022;29;20061;-77
2021/06/05 01:51:57;;;;;;;7.07;6.13;;;;;;;13.34;91.63;95949.72;4822276;29;20046;-76
2021/06/05 01:54:32;;;;;;;7.45;6.03;;;;;;;13.40;91.13;95931.19;4822408;29;20050;-76
2021/06/05 01:57:06;;;;;;;9.00;6.43;;;;;;;13.49;90.82;95942.78;4834409;29;20045;-76
2021/06/05 01:59:32;;;;;;;7.22;5.90;;;;;;;13.52;90.73;95939.56;4823958;29;20046;-77
2021/06/05 02:01:58;;;;;;;9.27;6.22;;;;;;;13.52;90.29;95944.84;4822450;29;20125;-76
2021/06/05 02:04:24;;;;;;;7.32;5.80;;;;;;;13.60;90.04;95956.69;4822648;29;20069;-76
2021/06/05 02:06:52;;;;;;;7.20;6.50;;;;;;;13.60;90.51;95954.81;4821645;29;20054;-75
2021/06/05 02:09:20;;;;;;;6.75;5.88;;;;;;;13.65;90.22;95954.78;4822498;29;20547;-76
2021/06/05 02:11:50;;;;;;;8.52;6.55;;;;;;;13.60;90.07;95946.88;4822504;29;20049;-76
2021/06/05 02:14:22;;;;;;;7.65;5.95;;;;;;;13.58;90.23;95959.59;4825085;29;20125;-76
2021/06/05 02:16:51;;;;;;;8.20;6.80;;;;;;;13.51;90.66;95964.41;4828187;29;20042;-77
2021/06/05 02:19:48;;;;;;;8.23;6.80;;;;;;;13.48;91.12;95971.03;4822549;29;20054;-76
2021/06/05 02:22:21;;;;;;;9.32;7.90;;;;;;;13.47;91.13;95968.69;4817060;29;20061;-77
2021/06/05 02:24:49;;;;;;;9.10;7.32;;;;;;;13.45;90.87;95965.53;4837316;29;20068;-76
2021/06/05 02:27:20;;;;;;;9.18;7.50;;;;;;;13.49;91.21;95969.22;4832133;29;20057;-76
2021/06/05 02:29:48;;;;;;;9.23;8.23;;;;;;;13.54;91.15;95969.16;4822203;29;20084;-77
2021/06/05 02:32:16;;;;;;;10.38;8.55;;;;;;;13.56;91.14;95967.03;4823134;29;20288;-77
2021/06/05 02:34:43;;;;;;;9.80;8.77;;;;;;;13.59;90.67;95966.47;4827239;29;20049;-77
2021/06/05 02:37:12;;;;;;;10.73;8.77;;;;;;;13.58;91.05;95964.88;4833287;29;20052;-76
2021/06/05 02:39:40;;;;;;;12.13;9.75;;;;;;;13.64;90.79;95979.63;4831486;29;20042;-77
2021/06/05 02:42:15;;;;;;;13.93;11.40;;;;;;;13.73;90.84;95965.81;4844146;29;20096;-77
2021/06/05 02:44:45;;;;;;;15.23;11.38;;;;;;;13.84;90.22;95967.31;4818452;29;20053;-77
2021/06/05 02:47:11;;;;;;;14.73;10.98;;;;;;;13.92;89.87;95963.28;4821523;29;20129;-77
2021/06/05 02:49:38;;;;;;;13.63;12.07;;;;;;;13.98;89.63;95962.16;4835644;29;20053;-76
2021/06/05 02:52:30;;;;;;;13.93;11.80;;;;;;;14.03;89.71;95960.25;4823402;29;20054;-77
2021/06/05 02:55:03;;;;;;;13.20;11.73;;;;;;;14.12;89.36;95959.63;4828649;29;20107;-77
2021/06/05 02:57:31;;;;;;;13.33;11.93;;;;;;;14.13;89.31;95958.56;4826126;29;20043;-77
2021/06/05 02:59:57;;;;;;;13.15;11.63;;;;;;;14.14;89.42;95960.16;4821206;29;20050;-77
2021/06/05 03:02:22;;;;;;;15.18;11.98;;;;;;;14.14;89.51;95970.75;4821969;29;20518;-76
2021/06/05 03:04:48;;;;;;;16.15;12.50;;;;;;;14.17;89.30;95959.59;4835949;29;20042;-76
2021/06/05 03:07:14;;;;;;;14.63;12.73;;;;;;;14.16;89.23;95966.72;4834929;29;20046;-77
2021/06/05 03:09:40;;;;;;;13.95;11.70;;;;;;;14.29;88.80;95973.22;4822077;29;20077;-76
2021/06/05 03:12:08;;;;;;;14.38;12.02;;;;;;;14.25;88.99;95972.22;4820806;29;20441;-76
2021/06/05 03:14:34;;;;;;;14.77;11.05;;;;;;;14.33;88.44;95973.44;4821561;29;20481;-76
2021/06/05 03:17:00;;;;;;;14.32;11.27;;;;;;;14.36;88.04;95972.88;4830635;29;20049;-75
2021/06/05 03:19:26;;;;;;;16.48;11.57;;;;;;;14.27;88.56;95974.59;4819298;29;20046;-76
2021/06/05 03:21:52;;;;;;;13.70;10.90;;;;;;;14.26;88.22;95984.38;4821214;29;20053;-76
2021/06/05 03:24:17;;;;;;;12.15;10.93;;;;;;;14.24;88.32;95981.22;4821581;29;20043;-76
2021/06/05 03:26:43;;;;;;;14.95;10.98;;;;;;;14.25;88.25;95977.53;4834873;29;20071;-76
2021/06/05 03:29:09;;;;;;;13.50;11.13;;;;;;;14.16;88.88;95984.47;4834073;29;20057;-76
2021/06/05 03:31:34;;;;;;;15.55;10.88;;;;;;;14.18;88.73;95985.00;4820318;29;20501;-76
2021/06/05 03:34:00;;;;;;;12.60;10.40;;;;;;;14.15;88.86;95977.59;4834836;29;20050;-77
2021/06/05 03:36:26;;;;;;;14.18;11.23;;;;;;;14.04;88.73;95972.41;4820142;29;20042;-76
2021/06/05 03:38:52;;;;;;;12.35;11.07;;;;;;;14.09;88.61;95984.00;4821042;29;20129;-77
2021/06/05 03:41:18;;;;;;;14.30;10.77;;;;;;;14.10;89.02;95975.03;4821336;29;20050;-76
2021/06/05 03:43:44;;;;;;;12.95;10.23;;;;;;;14.02;88.90;95973.75;4829800;29;20058;-76
2021/06/05 03:46:10;;;;;;;12.48;10.38;;;;;;;14.01;88.68;95982.78;4820725;29;20397;-76
2021/06/05 03:48:37;;;;;;;13.32;9.48;;;;;;;14.02;88.55;95979.84;4821172;29;20049;-76
2021/06/05 03:51:04;;;;;;;11.85;9.88;;;;;;;14.03;88.65;95981.41;4820503;29;20077;-76
2021/06/05 03:53:29;;;;;;;11.75;9.63;;;;;;;14.01;88.43;95978.25;4835039;29;20478;-76
2021/06/05 03:55:55;;;;;;;13.00;9.40;;;;;;;14.01;87.97;95982.78;4823599;29;20075;-77
2021/06/05 03:58:36;;;;;;;9.77;8.38;;;;;;;13.98;88.28;95980.69;4821002;29;20421;-76
2021/06/05 04:01:02;;;;;;;9.57;8.57;;;;;;;14.01;88.36;95978.25;4824268;29;20073;-77
2021/06/05 04:03:28;;;;;;;10.43;8.35;;;;;;;13.93;88.22;95981.50;4823420;29;20412;-77
2021/06/05 04:05:53;;;;;;;11.48;9.20;;;;;;;13.90;88.52;95987.38;4837037;29;20047;-77
2021/06/05 04:08:19;;;;;;;12.15;8.30;;;;;;;13.85;88.70;95984.78;4840872;29;20046;-77
2021/06/05 04:10:44;;;;;;;12.15;8.40;;;;;;;13.86;88.39;95975.75;4829816;29;20054;-77
2021/06/05 04:13:10;;;;;;;14.20;9.10;;;;;;;13.90;88.32;95982.06;4831288;29;20086;-78
2021/06/05 04:15:35;;;;;;;11.73;7.93;;;;;;;13.88;88.29;95984.22;4845424;29;20053;-77
2021/06/05 04:18:19;;;;;;;11.20;8.68;;;;;;;13.88;88.54;95978.94;4836108;29;20046;-77
2021/06/05 04:20:45;;;;;;;10.73;8.38;;;;;;;13.84;88.45;95977.91;4825946;29;20613;-77
2021/06/05 04:23:12;;;;;;;12.55;8.18;;;;;;;13.83;88.96;95979.78;4832723;29;20046;-77
2021/06/05 04:25:38;;;;;;;10.77;7.43;;;;;;;13.90;88.31;95976.78;4832675;29;20046;-77
2021/06/05 04:28:06;;;;;;;8.77;7.57;;;;;;;13.96;88.10;95991.53;4831091;29;20051;-77
2021/06/05 04:30:33;;;;;;;13.65;8.20;;;;;;;13.97;88.73;95987.81;4827956;29;20054;-77
2021/06/05 04:32:59;;;;;;;13.73;8.02;;;;;;;13.99;88.72;95991.00;4829809;29;20432;-77
2021/06/05 04:35:25;;;;;;;12.27;7.75;;;;;;;13.96;88.75;95991.53;4826667;29;20058;-77
2021/06/05 04:37:51;;;;;;;9.07;7.72;;;;;;;14.03;88.93;95986.69;4826350;29;20113;-77
2021/06/05 04:40:17;;;;;;;9.20;8.10;;;;;;;14.09;88.42;95989.31;4828661;29;20046;-77
2021/06/05 04:42:43;;;;;;;9.05;6.90;;;;;;;14.23;87.80;95990.22;4842657;29;20508;-77
2021/06/05 04:45:09;;;;;;;11.32;6.72;;;;;;;14.36;87.10;95992.19;4826364;29;20139;-77
2021/06/05 04:47:35;;;;;;;8.57;6.72;;;;;;;14.38;87.17;95992.72;4840529;29;20062;-77
2021/06/05 04:50:03;;;;;;;8.85;6.70;;;;;;;14.46;86.99;95993.16;4842171;29;20061;-77
2021/06/05 04:52:29;;;;;;;8.18;6.43;;;;;;;14.46;87.00;95988.66;4839870;29;20687;-77
2021/06/05 04:54:54;;;;;;;9.60;6.68;;;;;;;14.48;87.06;95996.31;4842533;29;20050;-76
2021/06/05 04:57:20;;;;;;;9.50;6.88;;;;;;;14.51;87.41;95985.16;4826843;29;20042;-77
2021/06/05 04:59:46;;;;;;;9.15;5.85;;;;;;;14.67;86.25;95989.25;4824840;29;20412;-77
2021/06/05 05:02:11;;;;;;;7.70;5.88;;;;;;;14.78;85.73;95978.53;4837692;29;20046;-77
2021/06/05 05:04:37;;;;;;;6.82;5.43;;;;;;;14.81;85.72;95991.19;4823267;29;20123;-76
2021/06/05 05:07:02;;;;;;;8.60;5.05;;;;;;;14.94;85.29;95985.22;4825801;29;20079;-77
2021/06/05 05:09:28;;;;;;;5.35;4.63;;;;;;;15.06;83.92;95982.91;4825472;29;20055;-77
2021/06/05 05:11:54;;;;;;;7.75;4.55;;;;;;;15.19;82.39;95978.75;4825351;29;20043;-77
2021/06/05 05:14:19;;;;;;;5.30;4.13;;;;;;;15.26;82.71;95983.72;4825373;29;20049;-77
2021/06/05 05:16:45;;;;;;;8.98;4.30;;;;;;;15.26;82.57;95978.41;4825318;29;20046;-77
2021/06/05 05:19:11;;;;;;;5.15;4.10;;;;;;;15.41;82.13;95980.03;4825218;29;20051;-77
2021/06/05 05:21:37;;;;;;;5.30;4.10;;;;;;;15.49;82.26;95975.97;4824486;29;20051;-77
2021/06/05 05:24:04;;;;;;;6.10;4.20;;;;;;;15.52;81.93;95975.38;4823969;29;20098;-77
2021/06/05 05:26:29;;;;;;;5.88;4.03;;;;;;;15.53;81.93;95971.63;4823876;29;20509;-76
2021/06/05 05:28:56;;;;;;;7.63;4.20;;;;;;;15.64;81.30;95975.69;4824088;29;20048;-77
2021/06/05 05:31:25;;;;;;;7.57;3.70;;;;;;;15.68;80.84;95981.22;4824747;29;20076;-77
2021/06/05 05:33:51;;;;;;;5.15;3.63;;;;;;;15.73;80.66;95976.63;4823996;29;20043;-77
2021/06/05 05:36:30;;;;;;;4.25;3.35;;;;;;;15.77;80.81;95969.66;4823542;29;20161;-76
2021/06/05 05:38:56;;;;;;;4.88;3.63;;;;;;;15.93;79.36;95972.06;4824154;29;20042;-77
2021/06/05 05:41:24;;;;;;;4.07;3.20;;;;;;;15.93;79.85;95969.41;4838843;29;20053;-77
2021/06/05 05:43:49;;;;;;;6.88;3.90;;;;;;;15.96;80.02;95963.53;4826008;29;20066;-76
2021/06/05 05:46:16;;;;;;;5.32;3.40;;;;;;;16.05;79.10;95967.09;4827318;29;20425;-77
2021/06/05 05:48:42;;;;;;;4.90;3.10;;;;;;;16.20;78.86;95967.88;4822614;29;20166;-77
2021/06/05 05:51:10;;;;;;;5.30;3.42;;;;;;;16.25;79.07;95965.16;4823202;29;20087;-77
2021/06/05 05:53:36;;;;;;;3.65;3.00;;;;;;;16.18;78.31;95960.22;4824521;29;20429;-77
2021/06/05 05:56:04;;;;;;;4.82;3.13;;;;;;;16.16;78.82;95953.63;4834081;29;20057;-77
2021/06/05 05:58:29;;;;;;;4.05;2.67;;;;;;;16.24;79.41;95953.72;4824527;29;20038;-77
2021/06/05 06:00:57;;;;;;;4.63;3.00;;;;;;;16.27;79.14;95962.97;4824398;29;20054;-77
2021/06/05 06:03:22;;;;;;;4.97;3.13;;;;;;;16.34;77.77;95958.06;4839088;29;20326;-77
2021/06/05 06:05:48;;;;;;;7.53;3.30;;;;;;;16.40;76.98;95956.88;4824745;29;20412;-77
2021/06/05 06:08:21;;;;;;;4.65;2.80;;;;;;;16.50;77.50;95963.88;4823845;29;20549;-77
2021/06/05 06:10:48;;;;;;;6.55;3.20;;;;;;;16.63;76.12;95959.63;4823573;29;20121;-76
2021/06/05 06:13:14;;;;;;;5.15;3.10;;;;;;;16.60;77.05;95958.34;4837166;29;20047;-76
2021/06/05 06:15:40;;;;;;;4.03;2.60;;;;;;;16.83;75.65;95962.97;4823181;29;20062;-76
2021/06/05 06:18:07;;;;;;;4.30;2.53;;;;;;;16.86;75.99;95971.09;4822143;29;20498;-76
2021/06/05 06:20:42;;;;;;;4.07;2.63;;;;;;;16.91;75.85;95975.56;4822255;29;20070;-77
2021/06/05 06:23:09;;;;;;;3.08;2.42;;;;;;;17.04;74.54;95969.44;4837088;29;20046;-77
2021/06/05 06:25:39;;;;;;;5.78;3.00;;;;;;;17.00;75.67;95973.78;4822841;29;20134;-76
2021/06/05 06:28:11;;;;;;;3.72;2.30;;;;;;;17.06;75.01;95971.81;4823640;29;20058;-77
2021/06/05 06:30:38;;;;;;;5.10;2.47;;;;;;;17.09;74.19;95966.66;4822637;29;20360;-77
2021/06/05 06:33:09;;;;;;;4.15;2.17;;;;;;;17.27;74.82;95972.16;4837525;29;20579;-77
2021/06/05 06:35:36;;;;;;;4.97;2.38;;;;;;;17.46;72.99;95975.41;4822780;29;20042;-76
2021/06/05 06:38:05;;;;;;;2.60;2.10;;;;;;;17.41;73.40;95967.56;4822025;29;21350;-77
2021/06/05 06:40:34;;;;;;;3.00;2.10;;;;;;;17.58;72.24;95966.09;4835873;29;20078;-77
2021/06/05 06:43:01;;;;;;;3.58;2.00;;;;;;;17.64;70.52;95972.88;4822072;29;20046;-76
2021/06/05 06:45:27;;;;;;;3.47;1.95;;;;;;;17.65;70.59;95972.56;4821675;29;20050;-76
2021/06/05 06:47:54;;;;;;;3.00;1.90;;;;;;;17.64;70.95;95964.88;4820802;29;20470;-76
2021/06/05 06:50:21;;;;;;;3.15;2.00;;;;;;;17.74;70.44;95963.84;4819019;29;20279;-76
2021/06/05 06:52:47;;;;;;;2.20;1.80;;;;;;;17.91;68.59;95963.19;4835296;29;20457;-76
2021/06/05 06:55:13;;;;;;;2.72;1.88;;;;;;;18.11;67.30;95957.34;4821327;29;20038;-76
2021/06/05 06:57:39;;;;;;;2.15;1.60;;;;;;;18.10;68.54;95960.31;4820806;29;20050;-75
2021/06/05 07:00:09;;;;;;;2.72;1.70;;;;;;;18.22;67.14;95962.41;4821261;29;20502;-76
2021/06/05 07:02:35;;;;;;;2.95;1.67;;;;;;;18.40;65.82;95964.03;4820880;29;20722;-75
2021/06/05 07:05:00;;;;;;;1.88;1.63;;;;;;;18.39;66.33;95957.16;4821422;29;20135;-76
2021/06/05 07:07:26;;;;;;;3.55;1.80;;;;;;;18.49;64.71;95966.75;4820278;29;20091;-76
2021/06/05 07:09:51;;;;;;;2.05;1.60;;;;;;;18.49;65.19;95962.19;4821293;29;20050;-76
2021/06/05 07:12:17;;;;;;;2.17;1.52;;;;;;;18.55;65.06;95964.72;4817006;29;20111;-75
2021/06/05 07:14:43;;;;;;;3.30;1.58;;;;;;;18.56;65.20;95960.97;4819427;29;20054;-76
2021/06/05 07:17:09;;;;;;;2.08;1.50;;;;;;;18.65;63.92;95959.88;4819270;29;20054;-77
2021/06/05 07:19:35;;;;;;;2.20;1.58;;;;;;;18.86;63.37;95960.13;4819286;29;20128;-75
2021/06/05 07:22:04;;;;;;;2.30;1.48;;;;;;;18.90;64.57;95956.84;4818921;29;20065;-72
2021/06/05 07:24:30;;;;;;;2.03;1.60;;;;;;;18.86;63.17;95959.28;4825202;29;20046;-76
2021/06/05 07:26:55;;;;;;;2.90;1.80;;;;;;;18.80;63.65;95961.31;4823321;29;20057;-77
2021/06/05 07:29:21;;;;;;;2.67;1.70;;;;;;;18.97;62.70;95960.59;4823331;29;20515;-79
2021/06/05 07:31:51;;;;;;;6.85;2.10;;;;;;;18.99;63.52;95962.94;4825034;29;20039;-79
2021/06/05 07:34:21;;;;;;;5.15;1.80;;;;;;;18.89;63.62;95958.69;4825145;29;20489;-79
2021/06/05 07:36:50;;;;;;;3.83;1.80;;;;;;;19.00;63.43;95953.88;4837049;29;20065;-79
2021/06/05 07:39:20;;;;;;;5.70;1.70;;;;;;;19.19;62.39;95951.69;4824465;29;20050;-79
2021/06/05 07:41:46;;;;;;;2.83;1.90;;;;;;;19.18;62.44;95949.34;4826993;29;20599;-79
2021/06/05 07:44:12;;;;;;;2.65;1.60;;;;;;;19.21;62.51;95954.81;4827834;29;20074;-78
2021/06/05 07:46:43;;;;;;;4.60;1.67;;;;;;;19.55;60.51;95958.56;4828667;29;20061;-79
2021/06/05 07:49:08;;;;;;;3.15;1.70;;;;;;;19.55;60.11;95958.56;4826711;29;20272;-76
2021/06/05 07:51:35;;;;;;;1.90;1.70;;;;;;;19.55;60.94;95958.56;4843128;29;20069;-79
2021/06/05 07:54:00;;;;;;;2.85;1.70;;;;;;;19.44;60.70;95965.34;4840565;29;20072;-77
2021/06/05 07:56:26;;;;;;;3.28;1.65;;;;;;;19.37;61.04;95967.69;4826315;29;20050;-77
2021/06/05 07:58:52;;;;;;;3.92;1.50;;;;;;;19.38;60.40;95969.28;4827933;29;20053;-78
2021/06/05 08:01:17;;;;;;;1.63;1.52;;;;;;;19.31;59.86;95969.72;4824517;29;20110;-77
2021/06/05 08:03:43;;;;;;;3.15;1.85;;;;;;;19.31;61.70;95971.59;4825703;29;20043;-77
2021/06/05 08:06:10;;;;;;;3.08;1.85;;;;;;;19.38;61.59;95969.28;4826394;29;20066;-77
2021/06/05 08:08:36;;;;;;;2.65;1.70;;;;;;;19.45;62.02;95969.59;4830823;29;20050;-77
2021/06/05 08:11:01;;;;;;;2.75;1.80;;;;;;;19.54;61.21;95967.69;4840579;29;20065;-75
2021/06/05 08:13:27;;;;;;;2.78;1.70;;;;;;;19.61;61.82;95972.56;4827094;29;20053;-75
2021/06/05 08:15:53;;;;;;;3.42;2.00;;;;;;;19.55;61.81;95963.91;4827735;29;20066;-77
2021/06/05 08:18:20;;;;;;;4.07;2.00;;;;;;;19.67;61.90;95970.50;4840107;29;20176;-76
2021/06/05 08:20:51;;;;;;;3.88;1.83;;;;;;;19.79;60.23;95970.66;4826712;29;20047;-76
2021/06/05 08:23:18;;;;;;;3.35;2.03;;;;;;;20.09;59.85;95970.75;4829038;29;20518;-75
2021/06/05 08:25:45;;;;;;;3.58;2.15;;;;;;;20.34;61.04;95970.97;4843360;29;20041;-77
2021/06/05 08:28:11;;;;;;;4.20;2.00;;;;;;;20.53;60.31;95971.38;4826331;29;20069;-77
2021/06/05 08:30:43;;;;;;;3.33;2.08;;;;;;;20.53;59.08;95968.69;4826626;29;20101;-77
2021/06/05 08:33:09;;;;;;;4.22;2.05;;;;;;;20.66;60.52;95968.78;4841980;29;20103;-76
2021/06/05 08:35:36;;;;;;;4.60;1.90;;;;;;;20.71;59.42;95968.63;4826772;29;20054;-77
2021/06/05 08:38:04;;;;;;;2.72;2.20;;;;;;;20.87;59.56;95961.59;4823643;29;20164;-75
2021/06/05 08:41:01;;;;;;;2.00;1.70;;;;;;;21.21;57.69;95965.16;4825553;29;20796;-77
2021/06/05 08:43:34;;;;;;;4.95;1.90;;;;;;;21.39;57.04;95959.66;4843648;29;20135;-76
2021/06/05 08:46:01;;;;;;;3.22;2.00;;;;;;;21.51;58.32;95966.97;4831878;29;20050;-76
2021/06/05 08:48:27;;;;;;;2.50;1.83;;;;;;;21.61;55.96;95967.38;4831786;29;20050;-76
2021/06/05 08:51:21;;;;;;;2.80;2.05;;;;;;;21.62;54.12;95963.59;4826032;29;20057;-76
2021/06/05 08:53:47;;;;;;;3.15;1.90;;;;;;;21.56;54.06;95958.75;4826358;29;20474;-78
2021/06/05 08:56:17;;;;;;;2.67;1.60;;;;;;;21.67;55.01;95959.13;4838761;29;20046;-77
2021/06/05 08:58:48;;;;;;;2.88;1.70;;;;;;;21.76;53.27;95963.28;4829752;29;20043;-74
2021/06/05 09:01:20;;;;;;;3.20;1.80;;;;;;;21.95;52.37;95953.94;4840373;29;20053;-76
2021/06/05 09:03:53;;;;;;;3.97;1.50;;;;;;;21.83;53.29;95952.03;4821184;29;20115;-75
2021/06/05 09:06:21;;;;;;;5.68;2.03;;;;;;;21.44;54.33;95951.44;4833405;29;20054;-75
2021/06/05 09:08:47;;;;;;;7.07;2.10;;;;;;;21.83;54.27;95952.03;4845449;29;20046;-75
2021/06/05 09:11:14;;;;;;;4.68;2.00;;;;;;;21.79;55.47;95946.56;4823321;29;20450;-76
2021/06/05 09:13:41;;;;;;;3.80;2.10;;;;;;;21.73;55.45;95949.78;4822445;29;20050;-75
2021/06/05 09:16:18;;;;;;;3.33;1.95;;;;;;;22.00;56.20;95955.66;4821943;29;20050;-75
2021/06/05 09:19:08;;;;;;;4.30;2.05;;;;;;;21.93;55.14;95962.31;4837999;29;20133;-75
2021/06/05 09:21:38;;;;;;;3.28;1.90;;;;;;;21.80;56.31;95963.41;4832346;29;20064;-75
2021/06/05 09:24:24;;;;;;;2.28;1.88;;;;;;;22.14;56.31;95956.13;4829371;29;20053;-76
2021/06/05 09:27:17;;;;;;;2.33;1.80;;;;;;;22.33;54.86;95957.50;4823360;29;20042;-75
2021/06/05 09:29:58;;;;;;;3.80;2.10;;;;;;;22.41;54.50;95970.00;4821430;29;20057;-77
2021/06/05 09:32:25;;;;;;;1.77;1.60;;;;;;;21.92;53.92;95976.84;4831068;29;20103;-74
2021/06/05 09:34:55;;;;;;;1.88;1.50;;;;;;;21.60;54.96;95971.16;4826715;29;20042;-76
2021/06/05 09:37:46;;;;;;;5.95;1.65;;;;;;;21.79;53.88;95972.56;4836523;29;20041;-75
2021/06/05 09:40:27;;;;;;;2.17;1.58;;;;;;;22.17;53.06;95981.47;4854243;29;20455;-75
2021/06/05 09:43:07;;;;;;;3.95;1.70;;;;;;;22.25;49.89;95978.69;4823374;29;20052;-74
2021/06/05 09:45:33;;;;;;;2.88;1.60;;;;;;;22.50;50.17;95978.75;4822101;29;20107;-73
2021/06/05 09:48:14;;;;;;;3.38;1.50;;;;;;;22.81;49.15;95972.03;4822255;29;20042;-74
2021/06/05 09:50:43;;;;;;;4.45;1.60;;;;;;;22.80;50.37;95965.09;4831594;29;20046;-77
2021/06/05 09:53:40;;;;;;;1.55;1.45;;;;;;;22.53;47.78;95971.91;4826191;29;20062;-77
2021/06/05 09:56:11;;;;;;;2.17;1.50;;;;;;;22.87;47.62;95965.31;4823423;29;20066;-77
2021/06/05 09:58:41;;;;;;;1.52;1.38;;;;;;;22.85;48.49;95967.53;4823611;29;20613;-77
2021/06/05 10:01:25;;;;;;;2.05;1.40;;;;;;;22.74;46.96;95959.19;4821242;29;20413;-78
2021/06/05 10:04:19;;;;;;;1.33;1.23;;;;;;;22.23;47.64;95962.16;4836885;29;20107;-77
2021/06/05 10:06:52;;;;;;;3.17;1.90;;;;;;;22.42;47.87;95950.13;4824885;29;20437;-77
2021/06/05 10:09:18;;;;;;;1.95;1.50;;;;;;;22.73;48.83;95951.44;4846906;29;20141;-78
2021/06/05 10:11:47;;;;;;;1.30;1.20;;;;;;;22.49;47.27;95950.34;4840116;29;20038;-78
2021/06/05 10:14:21;;;;;;;3.08;1.55;;;;;;;22.83;46.55;95948.34;4824461;29;20061;-77
2021/06/05 10:17:07;;;;;;;3.40;1.40;;;;;;;23.09;47.49;95928.38;4827001;29;20039;-77
2021/06/05 10:19:51;;;;;;;2.28;1.40;;;;;;;23.21;46.67;95941.00;4823953;29;20240;-78
2021/06/05 10:22:16;;;;;;;2.58;1.40;;;;;;;23.26;44.89;95932.69;4825922;29;20046;-77
2021/06/05 10:24:58;;;;;;;2.03;1.50;;;;;;;22.55;47.08;95943.66;4825561;29;21316;-78
2021/06/05 10:27:32;;;;;;;3.50;1.65;;;;;;;22.80;47.60;95940.94;4833347;29;20046;-78
2021/06/05 10:30:02;;;;;;;;;;;;;;;22.94;47.17;95940.59;4839516;29;20047;-78
2021/06/05 10:32:33;;;;;;;1.75;1.50;;;;;;;22.86;46.25;95942.28;4824565;29;19939;-78
2021/06/05 10:35:23;;;;;;;2.55;1.60;;;;;;;22.65;46.65;95937.81;4820867;29;20055;-79
2021/06/05 10:37:50;;;;;;;1.75;1.50;;;;;;;22.90;45.88;95940.50;4823039;29;20107;-79
2021/06/05 10:40:21;;;;;;;2.20;1.60;;;;;;;23.18;47.54;95937.09;4823400;29;20057;-79
2021/06/05 10:42:50;;;;;;;2.13;1.55;;;;;;;23.62;45.68;95937.16;4821745;29;20042;-80
2021/06/05 10:45:26;;;;;;;2.97;1.60;;;;;;;23.55;45.07;95933.47;4822124;29;20046;-80
2021/06/05 10:48:13;;;;;;;2.17;1.60;;;;;;;23.39;45.50;95930.75;4834193;29;20501;-78
2021/06/05 10:50:47;;;;;;;1.67;1.38;;;;;;;23.35;45.07;95928.75;4814852;29;20137;-79
2021/06/05 10:53:27;;;;;;;1.50;1.40;;;;;;;23.32;46.62;95926.75;4823620;29;20489;-77
2021/06/05 10:55:57;;;;;;;1.58;1.48;;;;;;;23.75;45.63;95920.94;4824865;29;20046;-78
2021/06/05 10:58:49;;;;;;;2.80;1.50;;;;;;;24.11;44.26;95916.53;4822350;29;20046;-78
2021/06/05 11:01:38;;;;;;;1.60;1.50;;;;;;;24.56;43.24;95909.88;4835754;29;20046;-75
2021/06/05 11:04:06;;;;;;;2.10;1.40;;;;;;;25.10;41.41;95915.66;4825062;29;20118;-77
2021/06/05 11:06:47;;;;;;;1.85;1.40;;;;;;;25.12;41.03;95908.00;4819567;29;20047;-72
2021/06/05 11:09:29;;;;;;;2.05;1.60;;;;;;;25.21;42.46;95911.25;4821282;29;20050;-72
2021/06/05 11:12:02;;;;;;;2.58;1.90;;;;;;;25.91;40.88;95898.72;4820538;29;20459;-72
2021/06/05 11:14:44;;;;;;;4.28;1.60;;;;;;;26.41;39.72;95894.16;4821352;29;20051;-74
2021/06/05 11:17:25;;;;;;;4.20;1.75;;;;;;;26.83;38.67;95894.38;4835135;29;20140;-75
2021/06/05 11:20:05;;;;;;;2.17;1.67;;;;;;;25.46;40.77;95900.22;4821148;29;20073;-78
2021/06/05 11:22:51;;;;;;;2.08;1.73;;;;;;;26.15;40.79;95907.59;4821206;29;20058;-77
2021/06/05 11:25:17;;;;;;;3.83;1.65;;;;;;;26.17;40.13;95905.34;4820834;29;20046;-74
2021/06/05 11:27:47;;;;;;;1.88;1.50;;;;;;;26.47;39.35;95907.34;4819573;29;20042;-73
2021/06/05 11:30:21;;;;;;;2.58;1.60;;;;;;;26.95;39.00;95899.53;4818761;29;20054;-73
2021/06/05 11:33:33;;;;;;;2.35;1.58;;;;;;;26.72;39.88;95900.41;4821099;29;20050;-73
2021/06/05 11:36:00;;;;;;;1.70;1.52;;;;;;;26.17;41.77;95905.34;4820185;29;20054;-74
2021/06/05 11:38:26;;;;;;;2.60;1.90;;;;;;;26.66;40.46;95901.81;4820706;29;20050;-73
2021/06/05 11:41:03;;;;;;;2.10;1.63;;;;;;;26.45;41.71;95900.38;4820718;29;20046;-73
2021/06/05 11:43:29;;;;;;;3.38;1.80;;;;;;;26.47;41.40;95907.34;4820717;29;20054;-73
2021/06/05 11:46:04;;;;;;;1.90;1.60;;;;;;;26.53;40.30;95900.47;4833614;29;20676;-73